sensor_id;sensor_type;location;lat;lon;timestamp;pressure;altitude;pressure_sealevel;temperature;humidity
14383;BME280;7275;50.328;8.720;2023-07-24T00:02:00;98900.38;;;24.59;50.10
14383;BME280;7275;50.328;8.720;2023-07-24T00:04:31;98890.91;;;24.55;50.10
14383;BME280;7275;50.328;8.720;2023-07-24T00:06:59;98899.16;;;24.53;50.07
14383;BME280;7275;50.328;8.720;2023-07-24T00:09:27;98894.28;;;24.49;50.14
14383;BME280;7275;50.328;8.720;2023-07-24T00:11:54;98887.34;;;24.46;50.01
14383;BME280;7275;50.328;8.720;2023-07-24T00:14:22;98887.81;;;24.42;50.12
14383;BME280;7275;50.328;8.720;2023-07-24T00:16:50;98899.81;;;24.39;50.02
14383;BME280;7275;50.328;8.720;2023-07-24T00:19:17;98902.84;;;24.36;49.91
14383;BME280;7275;50.328;8.720;2023-07-24T00:21:46;98893.34;;;24.32;49.95
14383;BME280;7275;50.328;8.720;2023-07-24T00:24:14;98890.13;;;24.29;49.97
14383;BME280;7275;50.328;8.720;2023-07-24T00:26:41;98895.19;;;24.24;49.98
14383;BME280;7275;50.328;8.720;2023-07-24T00:29:09;98885.72;;;24.20;50.19
14383;BME280;7275;50.328;8.720;2023-07-24T00:31:36;98893.28;;;24.16;49.95
14383;BME280;7275;50.328;8.720;2023-07-24T00:34:04;98881.97;;;24.13;50.10
14383;BME280;7275;50.328;8.720;2023-07-24T00:36:32;98878.59;;;24.11;50.22
14383;BME280;7275;50.328;8.720;2023-07-24T00:39:01;98886.00;;;24.09;50.36
14383;BME280;7275;50.328;8.720;2023-07-24T00:41:28;98874.53;;;24.07;50.30
14383;BME280;7275;50.328;8.720;2023-07-24T00:43:56;98883.78;;;24.04;50.24
14383;BME280;7275;50.328;8.720;2023-07-24T00:46:24;98881.38;;;24.01;50.39
14383;BME280;7275;50.328;8.720;2023-07-24T00:48:52;98886.25;;;23.98;50.49
14383;BME280;7275;50.328;8.720;2023-07-24T00:51:20;98878.50;;;23.95;50.83
14383;BME280;7275;50.328;8.720;2023-07-24T00:53:48;98869.84;;;23.91;50.97
14383;BME280;7275;50.328;8.720;2023-07-24T00:56:16;98871.88;;;23.89;51.07
14383;BME280;7275;50.328;8.720;2023-07-24T00:58:44;98867.50;;;23.88;51.05
14383;BME280;7275;50.328;8.720;2023-07-24T01:01:11;98862.91;;;23.89;51.28
14383;BME280;7275;50.328;8.720;2023-07-24T01:03:39;98846.03;;;23.87;51.08
14383;BME280;7275;50.328;8.720;2023-07-24T01:06:07;98851.13;;;23.90;51.16
14383;BME280;7275;50.328;8.720;2023-07-24T01:08:34;98860.75;;;23.92;51.01
14383;BME280;7275;50.328;8.720;2023-07-24T01:11:08;98869.53;;;23.94;51.26
14383;BME280;7275;50.328;8.720;2023-07-24T01:13:42;98864.16;;;23.94;50.96
14383;BME280;7275;50.328;8.720;2023-07-24T01:16:14;98865.13;;;23.93;51.30
14383;BME280;7275;50.328;8.720;2023-07-24T01:18:45;98863.47;;;23.92;50.88
14383;BME280;7275;50.328;8.720;2023-07-24T01:21:14;98860.22;;;23.89;51.10
14383;BME280;7275;50.328;8.720;2023-07-24T01:23:52;98856.84;;;23.87;50.84
14383;BME280;7275;50.328;8.720;2023-07-24T01:26:24;98850.75;;;23.84;51.07
14383;BME280;7275;50.328;8.720;2023-07-24T01:28:53;98846.19;;;23.85;51.15
14383;BME280;7275;50.328;8.720;2023-07-24T01:31:20;98848.22;;;23.83;50.75
14383;BME280;7275;50.328;8.720;2023-07-24T01:33:48;98848.38;;;23.81;51.04
14383;BME280;7275;50.328;8.720;2023-07-24T01:36:16;98846.69;;;23.80;50.80
14383;BME280;7275;50.328;8.720;2023-07-24T01:38:47;98836.75;;;23.81;50.81
14383;BME280;7275;50.328;8.720;2023-07-24T01:41:15;98835.06;;;23.80;51.20
14383;BME280;7275;50.328;8.720;2023-07-24T01:43:44;98829.81;;;23.78;50.98
14383;BME280;7275;50.328;8.720;2023-07-24T01:46:12;98836.22;;;23.77;50.98
14383;BME280;7275;50.328;8.720;2023-07-24T01:48:40;98823.88;;;23.75;50.89
14383;BME280;7275;50.328;8.720;2023-07-24T01:51:07;98821.38;;;23.73;50.99
14383;BME280;7275;50.328;8.720;2023-07-24T01:53:35;98809.03;;;23.71;50.73
14383;BME280;7275;50.328;8.720;2023-07-24T01:56:03;98805.66;;;23.69;51.03
14383;BME280;7275;50.328;8.720;2023-07-24T01:58:30;98800.56;;;23.66;50.85
14383;BME280;7275;50.328;8.720;2023-07-24T02:00:59;98778.28;;;23.64;51.14
14383;BME280;7275;50.328;8.720;2023-07-24T02:03:27;98785.69;;;23.62;50.86
14383;BME280;7275;50.328;8.720;2023-07-24T02:05:54;98787.03;;;23.58;50.96
14383;BME280;7275;50.328;8.720;2023-07-24T02:08:22;98792.75;;;23.55;51.20
14383;BME280;7275;50.328;8.720;2023-07-24T02:10:49;98793.06;;;23.52;51.04
14383;BME280;7275;50.328;8.720;2023-07-24T02:13:17;98791.41;;;23.51;50.98
14383;BME280;7275;50.328;8.720;2023-07-24T02:15:45;98787.16;;;23.48;51.22
14383;BME280;7275;50.328;8.720;2023-07-24T02:18:14;98786.47;;;23.46;51.01
14383;BME280;7275;50.328;8.720;2023-07-24T02:20:41;98784.78;;;23.45;51.44
14383;BME280;7275;50.328;8.720;2023-07-24T02:23:15;98773.81;;;23.47;51.35
14383;BME280;7275;50.328;8.720;2023-07-24T02:25:42;98765.03;;;23.45;51.46
14383;BME280;7275;50.328;8.720;2023-07-24T02:28:10;98755.44;;;23.42;51.58
14383;BME280;7275;50.328;8.720;2023-07-24T02:30:38;98751.03;;;23.41;51.28
14383;BME280;7275;50.328;8.720;2023-07-24T02:33:06;98759.13;;;23.41;51.50
14383;BME280;7275;50.328;8.720;2023-07-24T02:35:39;98760.16;;;23.40;51.58
14383;BME280;7275;50.328;8.720;2023-07-24T02:38:07;98754.41;;;23.43;51.19
14383;BME280;7275;50.328;8.720;2023-07-24T02:40:35;98743.63;;;23.43;51.29
14383;BME280;7275;50.328;8.720;2023-07-24T02:43:03;98743.63;;;23.43;51.16
14383;BME280;7275;50.328;8.720;2023-07-24T02:45:33;98743.63;;;23.43;51.31
14383;BME280;7275;50.328;8.720;2023-07-24T02:48:01;98749.00;;;23.43;51.19
14383;BME280;7275;50.328;8.720;2023-07-24T02:50:29;98741.94;;;23.42;50.99
14383;BME280;7275;50.328;8.720;2023-07-24T02:52:58;98746.50;;;23.42;50.95
14383;BME280;7275;50.328;8.720;2023-07-24T02:55:25;98744.78;;;23.41;51.26
14383;BME280;7275;50.328;8.720;2023-07-24T02:57:53;98748.66;;;23.38;51.02
14383;BME280;7275;50.328;8.720;2023-07-24T03:00:20;98745.13;;;23.38;51.30
14383;BME280;7275;50.328;8.720;2023-07-24T03:02:48;98746.09;;;23.37;50.96
14383;BME280;7275;50.328;8.720;2023-07-24T03:05:16;98754.38;;;23.35;50.91
14383;BME280;7275;50.328;8.720;2023-07-24T03:07:43;98764.47;;;23.33;51.16
14383;BME280;7275;50.328;8.720;2023-07-24T03:10:12;98764.75;;;23.30;51.19
14383;BME280;7275;50.328;8.720;2023-07-24T03:12:40;98765.94;;;23.28;51.33
14383;BME280;7275;50.328;8.720;2023-07-24T03:15:07;98769.78;;;23.25;51.06
14383;BME280;7275;50.328;8.720;2023-07-24T03:17:35;98759.31;;;23.22;51.00
14383;BME280;7275;50.328;8.720;2023-07-24T03:20:09;98759.66;;;23.19;51.24
14383;BME280;7275;50.328;8.720;2023-07-24T03:22:37;98770.28;;;23.21;51.18
14383;BME280;7275;50.328;8.720;2023-07-24T03:25:05;98779.50;;;23.18;51.17
14383;BME280;7275;50.328;8.720;2023-07-24T03:27:34;98773.44;;;23.16;51.14
14383;BME280;7275;50.328;8.720;2023-07-24T03:30:02;98771.75;;;23.15;51.29
14383;BME280;7275;50.328;8.720;2023-07-24T03:32:29;98769.19;;;23.14;51.65
14383;BME280;7275;50.328;8.720;2023-07-24T03:34:57;98763.13;;;23.12;51.79
14383;BME280;7275;50.328;8.720;2023-07-24T03:37:24;98752.50;;;23.10;51.51
14383;BME280;7275;50.328;8.720;2023-07-24T03:39:52;98748.81;;;23.11;51.80
14383;BME280;7275;50.328;8.720;2023-07-24T03:42:27;98746.13;;;23.11;51.81
14383;BME280;7275;50.328;8.720;2023-07-24T03:44:56;98745.44;;;23.09;51.45
14383;BME280;7275;50.328;8.720;2023-07-24T03:47:24;98744.41;;;23.10;51.47
14383;BME280;7275;50.328;8.720;2023-07-24T03:49:52;98734.66;;;23.09;51.28
14383;BME280;7275;50.328;8.720;2023-07-24T03:52:19;98735.47;;;23.10;51.01
14383;BME280;7275;50.328;8.720;2023-07-24T03:54:47;98721.16;;;23.09;51.20
14383;BME280;7275;50.328;8.720;2023-07-24T03:57:15;98715.91;;;23.08;51.15
14383;BME280;7275;50.328;8.720;2023-07-24T03:59:43;98712.41;;;23.07;51.20
14383;BME280;7275;50.328;8.720;2023-07-24T04:02:11;98702.78;;;23.04;51.09
14383;BME280;7275;50.328;8.720;2023-07-24T04:04:39;98704.78;;;23.02;51.29
14383;BME280;7275;50.328;8.720;2023-07-24T04:07:06;98713.00;;;23.01;51.66
14383;BME280;7275;50.328;8.720;2023-07-24T04:09:34;98722.13;;;23.00;51.50
14383;BME280;7275;50.328;8.720;2023-07-24T04:12:02;98715.19;;;22.97;51.51
14383;BME280;7275;50.328;8.720;2023-07-24T04:14:29;98707.25;;;22.96;51.72
14383;BME280;7275;50.328;8.720;2023-07-24T04:16:57;98712.50;;;22.97;51.61
14383;BME280;7275;50.328;8.720;2023-07-24T04:19:26;98701.41;;;23.00;51.70
14383;BME280;7275;50.328;8.720;2023-07-24T04:21:53;98697.50;;;23.03;51.25
14383;BME280;7275;50.328;8.720;2023-07-24T04:24:21;98692.66;;;23.07;51.63
14383;BME280;7275;50.328;8.720;2023-07-24T04:26:48;98689.97;;;23.07;51.58
14383;BME280;7275;50.328;8.720;2023-07-24T04:29:16;98694.03;;;23.11;51.26
14383;BME280;7275;50.328;8.720;2023-07-24T04:31:43;98679.22;;;23.15;51.54
14383;BME280;7275;50.328;8.720;2023-07-24T04:34:10;98678.88;;;23.18;51.36
14383;BME280;7275;50.328;8.720;2023-07-24T04:36:39;98690.56;;;23.26;51.56
14383;BME280;7275;50.328;8.720;2023-07-24T04:39:07;98692.94;;;23.29;51.54
14383;BME280;7275;50.328;8.720;2023-07-24T04:41:34;98701.44;;;23.34;51.69
14383;BME280;7275;50.328;8.720;2023-07-24T04:44:02;98710.72;;;23.40;51.48
14383;BME280;7275;50.328;8.720;2023-07-24T04:46:29;98700.63;;;23.42;51.75
14383;BME280;7275;50.328;8.720;2023-07-24T04:48:58;98702.97;;;23.45;51.33
14383;BME280;7275;50.328;8.720;2023-07-24T04:51:25;98708.91;;;23.48;51.73
14383;BME280;7275;50.328;8.720;2023-07-24T04:53:54;98724.63;;;23.53;51.33
14383;BME280;7275;50.328;8.720;2023-07-24T04:56:22;98724.13;;;23.57;51.68
14383;BME280;7275;50.328;8.720;2023-07-24T04:58:49;98720.25;;;23.60;51.50
14383;BME280;7275;50.328;8.720;2023-07-24T05:01:17;98720.06;;;23.61;51.58
14383;BME280;7275;50.328;8.720;2023-07-24T05:03:44;98719.59;;;23.66;51.47
14383;BME280;7275;50.328;8.720;2023-07-24T05:06:12;98722.84;;;23.69;51.52
14383;BME280;7275;50.328;8.720;2023-07-24T05:08:39;98708.13;;;23.72;51.14
14383;BME280;7275;50.328;8.720;2023-07-24T05:11:08;98706.84;;;23.76;51.35
14383;BME280;7275;50.328;8.720;2023-07-24T05:13:36;98696.72;;;23.78;51.26
14383;BME280;7275;50.328;8.720;2023-07-24T05:16:04;98701.25;;;23.77;51.63
14383;BME280;7275;50.328;8.720;2023-07-24T05:18:31;98704.81;;;23.78;51.24
14383;BME280;7275;50.328;8.720;2023-07-24T05:20:59;98692.63;;;23.74;51.44
14383;BME280;7275;50.328;8.720;2023-07-24T05:23:26;98708.81;;;23.74;51.65
14383;BME280;7275;50.328;8.720;2023-07-24T05:25:57;98713.53;;;23.72;51.86
14383;BME280;7275;50.328;8.720;2023-07-24T05:28:27;98721.31;;;23.75;51.75
14383;BME280;7275;50.328;8.720;2023-07-24T05:30:55;98730.09;;;23.77;51.88
14383;BME280;7275;50.328;8.720;2023-07-24T05:33:22;98722.38;;;23.82;51.57
14383;BME280;7275;50.328;8.720;2023-07-24T05:35:50;98715.75;;;23.84;51.34
14383;BME280;7275;50.328;8.720;2023-07-24T05:38:18;98718.34;;;23.94;51.41
14383;BME280;7275;50.328;8.720;2023-07-24T05:40:45;98713.28;;;23.99;51.36
14383;BME280;7275;50.328;8.720;2023-07-24T05:43:12;98709.41;;;24.02;51.72
14383;BME280;7275;50.328;8.720;2023-07-24T05:45:41;98695.03;;;24.01;51.44
14383;BME280;7275;50.328;8.720;2023-07-24T05:48:09;98689.66;;;24.01;51.89
14383;BME280;7275;50.328;8.720;2023-07-24T05:50:36;98698.81;;;24.08;51.50
14383;BME280;7275;50.328;8.720;2023-07-24T05:53:04;98693.91;;;24.12;51.64
14383;BME280;7275;50.328;8.720;2023-07-24T05:55:31;98691.75;;;24.15;51.85
14383;BME280;7275;50.328;8.720;2023-07-24T05:57:59;98679.41;;;24.21;52.00
14383;BME280;7275;50.328;8.720;2023-07-24T06:00:27;98673.16;;;24.28;51.67
14383;BME280;7275;50.328;8.720;2023-07-24T06:02:56;98667.94;;;24.35;51.68
14383;BME280;7275;50.328;8.720;2023-07-24T06:05:23;98669.81;;;24.42;51.59
14383;BME280;7275;50.328;8.720;2023-07-24T06:07:51;98679.59;;;24.51;51.72
14383;BME280;7275;50.328;8.720;2023-07-24T06:10:18;98678.25;;;24.64;51.55
14383;BME280;7275;50.328;8.720;2023-07-24T06:12:46;98674.19;;;24.76;51.48
14383;BME280;7275;50.328;8.720;2023-07-24T06:15:14;98682.59;;;24.89;51.69
14383;BME280;7275;50.328;8.720;2023-07-24T06:17:41;98676.31;;;25.04;51.67
14383;BME280;7275;50.328;8.720;2023-07-24T06:20:11;98669.34;;;25.18;50.38
14383;BME280;7275;50.328;8.720;2023-07-24T06:22:38;98673.72;;;25.27;50.24
14383;BME280;7275;50.328;8.720;2023-07-24T06:25:06;98676.03;;;25.38;49.71
14383;BME280;7275;50.328;8.720;2023-07-24T06:27:34;98673.13;;;25.48;49.72
14383;BME280;7275;50.328;8.720;2023-07-24T06:30:02;98672.94;;;25.57;49.58
14383;BME280;7275;50.328;8.720;2023-07-24T06:32:41;98671.38;;;25.63;49.47
14383;BME280;7275;50.328;8.720;2023-07-24T06:35:10;98676.09;;;25.69;49.32
14383;BME280;7275;50.328;8.720;2023-07-24T06:37:38;98678.06;;;25.75;49.00
14383;BME280;7275;50.328;8.720;2023-07-24T06:40:06;98678.22;;;25.81;48.75
14383;BME280;7275;50.328;8.720;2023-07-24T06:42:34;98662.75;;;25.90;48.57
14383;BME280;7275;50.328;8.720;2023-07-24T06:45:02;98659.28;;;26.04;48.33
14383;BME280;7275;50.328;8.720;2023-07-24T06:47:33;98666.34;;;26.13;48.63
14383;BME280;7275;50.328;8.720;2023-07-24T06:50:01;98662.19;;;26.25;48.76
14383;BME280;7275;50.328;8.720;2023-07-24T06:52:30;98671.84;;;26.28;48.69
14383;BME280;7275;50.328;8.720;2023-07-24T06:54:58;98673.63;;;26.35;48.62
14383;BME280;7275;50.328;8.720;2023-07-24T06:57:25;98667.66;;;26.40;48.46
14383;BME280;7275;50.328;8.720;2023-07-24T06:59:53;98670.84;;;26.43;47.98
14383;BME280;7275;50.328;8.720;2023-07-24T07:02:21;98677.31;;;26.42;47.94
14383;BME280;7275;50.328;8.720;2023-07-24T07:04:48;98676.09;;;26.45;47.91
14383;BME280;7275;50.328;8.720;2023-07-24T07:07:16;98672.28;;;26.54;47.87
14383;BME280;7275;50.328;8.720;2023-07-24T07:09:45;98668.47;;;26.63;48.04
14383;BME280;7275;50.328;8.720;2023-07-24T07:12:12;98673.78;;;26.79;47.85
14383;BME280;7275;50.328;8.720;2023-07-24T07:14:40;98649.88;;;26.97;46.88
14383;BME280;7275;50.328;8.720;2023-07-24T07:17:07;98656.22;;;27.04;46.42
14383;BME280;7275;50.328;8.720;2023-07-24T07:19:35;98666.16;;;26.97;45.22
14383;BME280;7275;50.328;8.720;2023-07-24T07:22:04;98655.84;;;27.07;45.44
14383;BME280;7275;50.328;8.720;2023-07-24T07:24:31;98668.38;;;27.08;45.37
14383;BME280;7275;50.328;8.720;2023-07-24T07:27:00;98669.13;;;27.17;45.35
14383;BME280;7275;50.328;8.720;2023-07-24T07:29:28;98658.81;;;27.27;44.67
14383;BME280;7275;50.328;8.720;2023-07-24T07:31:57;98672.50;;;27.33;43.87
14383;BME280;7275;50.328;8.720;2023-07-24T07:34:25;98657.50;;;27.23;44.11
14383;BME280;7275;50.328;8.720;2023-07-24T07:36:52;98664.72;;;27.30;43.88
14383;BME280;7275;50.328;8.720;2023-07-24T07:39:20;98675.31;;;27.40;43.64
14383;BME280;7275;50.328;8.720;2023-07-24T07:41:47;98665.56;;;27.45;43.95
14383;BME280;7275;50.328;8.720;2023-07-24T07:44:19;98666.72;;;27.36;43.66
14383;BME280;7275;50.328;8.720;2023-07-24T07:46:46;98663.44;;;27.41;43.99
14383;BME280;7275;50.328;8.720;2023-07-24T07:49:14;98668.13;;;27.47;44.27
14383;BME280;7275;50.328;8.720;2023-07-24T07:51:41;98676.53;;;27.52;43.94
14383;BME280;7275;50.328;8.720;2023-07-24T07:54:09;98660.22;;;27.52;43.68
14383;BME280;7275;50.328;8.720;2023-07-24T07:56:36;98659.97;;;27.47;43.78
14383;BME280;7275;50.328;8.720;2023-07-24T07:59:04;98637.38;;;27.61;43.63
14383;BME280;7275;50.328;8.720;2023-07-24T08:01:33;98637.91;;;27.71;43.26
14383;BME280;7275;50.328;8.720;2023-07-24T08:04:00;98642.56;;;27.77;43.71
14383;BME280;7275;50.328;8.720;2023-07-24T08:06:28;98646.41;;;27.83;42.95
14383;BME280;7275;50.328;8.720;2023-07-24T08:08:56;98646.28;;;27.91;42.88
14383;BME280;7275;50.328;8.720;2023-07-24T08:11:24;98643.16;;;27.94;42.99
14383;BME280;7275;50.328;8.720;2023-07-24T08:13:51;98646.41;;;27.97;42.88
14383;BME280;7275;50.328;8.720;2023-07-24T08:16:19;98653.94;;;28.02;42.55
14383;BME280;7275;50.328;8.720;2023-07-24T08:18:48;98649.63;;;28.07;42.55
14383;BME280;7275;50.328;8.720;2023-07-24T08:21:16;98636.50;;;28.11;43.07
14383;BME280;7275;50.328;8.720;2023-07-24T08:23:43;98634.09;;;28.22;42.58
14383;BME280;7275;50.328;8.720;2023-07-24T08:26:11;98644.84;;;28.30;42.08
14383;BME280;7275;50.328;8.720;2023-07-24T08:28:38;98629.13;;;28.26;41.53
14383;BME280;7275;50.328;8.720;2023-07-24T08:31:08;98632.06;;;28.31;41.79
14383;BME280;7275;50.328;8.720;2023-07-24T08:33:36;98625.97;;;28.29;40.85
14383;BME280;7275;50.328;8.720;2023-07-24T08:36:06;98624.75;;;28.31;41.19
14383;BME280;7275;50.328;8.720;2023-07-24T08:38:34;98621.81;;;28.26;41.31
14383;BME280;7275;50.328;8.720;2023-07-24T08:41:04;98616.16;;;28.28;41.47
14383;BME280;7275;50.328;8.720;2023-07-24T08:43:32;98617.94;;;28.42;41.61
14383;BME280;7275;50.328;8.720;2023-07-24T08:46:01;98615.28;;;28.48;41.25
14383;BME280;7275;50.328;8.720;2023-07-24T08:48:31;98609.53;;;28.58;41.26
14383;BME280;7275;50.328;8.720;2023-07-24T08:51:02;98611.75;;;28.76;41.81
14383;BME280;7275;50.328;8.720;2023-07-24T08:53:32;98608.97;;;28.97;41.26
14383;BME280;7275;50.328;8.720;2023-07-24T08:56:02;98611.34;;;29.13;41.23
14383;BME280;7275;50.328;8.720;2023-07-24T08:58:30;98610.63;;;29.26;40.51
14383;BME280;7275;50.328;8.720;2023-07-24T09:00:58;98606.50;;;29.43;40.33
14383;BME280;7275;50.328;8.720;2023-07-24T09:03:26;98613.47;;;29.58;39.89
14383;BME280;7275;50.328;8.720;2023-07-24T09:05:55;98615.19;;;29.66;39.34
14383;BME280;7275;50.328;8.720;2023-07-24T09:08:29;98611.00;;;29.70;39.26
14383;BME280;7275;50.328;8.720;2023-07-24T09:10:58;98613.78;;;29.89;38.90
14383;BME280;7275;50.328;8.720;2023-07-24T09:13:27;98622.00;;;30.02;38.92
14383;BME280;7275;50.328;8.720;2023-07-24T09:15:54;98613.44;;;30.19;38.59
14383;BME280;7275;50.328;8.720;2023-07-24T09:18:22;98602.16;;;30.41;38.54
14383;BME280;7275;50.328;8.720;2023-07-24T09:20:50;98616.22;;;30.64;38.83
14383;BME280;7275;50.328;8.720;2023-07-24T09:23:25;98598.81;;;30.85;36.77
14383;BME280;7275;50.328;8.720;2023-07-24T09:25:53;98598.31;;;31.08;37.85
14383;BME280;7275;50.328;8.720;2023-07-24T09:28:22;98590.03;;;31.27;37.02
14383;BME280;7275;50.328;8.720;2023-07-24T09:30:55;98587.25;;;31.53;36.49
14383;BME280;7275;50.328;8.720;2023-07-24T09:33:23;98583.78;;;31.71;36.89
14383;BME280;7275;50.328;8.720;2023-07-24T09:35:57;98581.63;;;31.80;34.84
14383;BME280;7275;50.328;8.720;2023-07-24T09:38:25;98577.69;;;31.69;34.87
14383;BME280;7275;50.328;8.720;2023-07-24T09:40:53;98566.00;;;31.56;34.88
14383;BME280;7275;50.328;8.720;2023-07-24T09:43:24;98559.56;;;31.43;34.87
14383;BME280;7275;50.328;8.720;2023-07-24T09:46:06;98551.63;;;31.22;35.33
14383;BME280;7275;50.328;8.720;2023-07-24T09:48:34;98550.41;;;31.12;35.30
14383;BME280;7275;50.328;8.720;2023-07-24T09:51:08;98545.78;;;31.12;35.58
14383;BME280;7275;50.328;8.720;2023-07-24T09:53:43;98544.22;;;31.29;35.77
14383;BME280;7275;50.328;8.720;2023-07-24T09:56:11;98543.13;;;31.50;35.35
14383;BME280;7275;50.328;8.720;2023-07-24T09:58:40;98537.00;;;31.48;34.52
14383;BME280;7275;50.328;8.720;2023-07-24T10:01:09;98550.00;;;31.59;34.98
14383;BME280;7275;50.328;8.720;2023-07-24T10:03:39;98544.00;;;31.75;35.43
14383;BME280;7275;50.328;8.720;2023-07-24T10:06:09;98545.31;;;31.73;34.61
14383;BME280;7275;50.328;8.720;2023-07-24T10:08:38;98549.66;;;31.80;34.44
14383;BME280;7275;50.328;8.720;2023-07-24T10:11:06;98554.19;;;31.62;34.21
14383;BME280;7275;50.328;8.720;2023-07-24T10:13:35;98555.22;;;31.61;34.44
14383;BME280;7275;50.328;8.720;2023-07-24T10:16:05;98556.13;;;31.54;34.25
14383;BME280;7275;50.328;8.720;2023-07-24T10:18:35;98549.91;;;31.41;34.86
14383;BME280;7275;50.328;8.720;2023-07-24T10:21:04;98547.56;;;31.31;34.45
14383;BME280;7275;50.328;8.720;2023-07-24T10:23:34;98558.13;;;31.21;34.73
14383;BME280;7275;50.328;8.720;2023-07-24T10:26:02;98570.63;;;30.98;34.96
14383;BME280;7275;50.328;8.720;2023-07-24T10:28:31;98551.53;;;30.91;35.15
14383;BME280;7275;50.328;8.720;2023-07-24T10:31:00;98559.09;;;30.96;35.39
14383;BME280;7275;50.328;8.720;2023-07-24T10:33:31;98565.97;;;30.98;35.30
14383;BME280;7275;50.328;8.720;2023-07-24T10:36:06;98554.47;;;30.83;34.79
14383;BME280;7275;50.328;8.720;2023-07-24T10:38:36;98556.38;;;30.89;35.12
14383;BME280;7275;50.328;8.720;2023-07-24T10:41:07;98558.63;;;30.99;34.34
14383;BME280;7275;50.328;8.720;2023-07-24T10:43:43;98559.63;;;31.11;35.18
14383;BME280;7275;50.328;8.720;2023-07-24T10:46:15;98548.03;;;31.28;34.80
14383;BME280;7275;50.328;8.720;2023-07-24T10:48:46;98546.94;;;31.36;34.13
14383;BME280;7275;50.328;8.720;2023-07-24T10:51:14;98543.97;;;31.44;34.11
14383;BME280;7275;50.328;8.720;2023-07-24T10:53:44;98547.03;;;31.61;34.59
14383;BME280;7275;50.328;8.720;2023-07-24T10:56:12;98540.22;;;31.76;34.64
14383;BME280;7275;50.328;8.720;2023-07-24T10:58:40;98541.22;;;31.82;33.66
14383;BME280;7275;50.328;8.720;2023-07-24T11:01:08;98530.63;;;31.92;33.26
14383;BME280;7275;50.328;8.720;2023-07-24T11:03:39;98537.78;;;31.93;33.06
14383;BME280;7275;50.328;8.720;2023-07-24T11:06:14;98528.59;;;31.87;33.73
14383;BME280;7275;50.328;8.720;2023-07-24T11:08:42;98529.63;;;31.86;33.30
14383;BME280;7275;50.328;8.720;2023-07-24T11:11:09;98525.38;;;31.66;32.79
14383;BME280;7275;50.328;8.720;2023-07-24T11:13:38;98513.94;;;31.75;32.92
14383;BME280;7275;50.328;8.720;2023-07-24T11:16:07;98515.97;;;31.86;32.41
14383;BME280;7275;50.328;8.720;2023-07-24T11:18:44;98508.88;;;32.10;32.67
14383;BME280;7275;50.328;8.720;2023-07-24T11:21:22;98499.09;;;32.20;32.25
14383;BME280;7275;50.328;8.720;2023-07-24T11:23:51;98492.88;;;32.31;31.61
14383;BME280;7275;50.328;8.720;2023-07-24T11:26:19;98494.94;;;32.36;31.03
14383;BME280;7275;50.328;8.720;2023-07-24T11:28:48;98503.31;;;32.41;30.14
14383;BME280;7275;50.328;8.720;2023-07-24T11:31:16;98493.91;;;32.37;30.12
14383;BME280;7275;50.328;8.720;2023-07-24T11:33:46;98501.59;;;32.22;29.70
14383;BME280;7275;50.328;8.720;2023-07-24T11:36:15;98519.06;;;32.46;29.13
14383;BME280;7275;50.328;8.720;2023-07-24T11:38:45;98473.22;;;32.41;29.27
14383;BME280;7275;50.328;8.720;2023-07-24T11:41:15;98481.53;;;32.53;28.65
14383;BME280;7275;50.328;8.720;2023-07-24T11:43:48;98489.78;;;32.71;27.95
14383;BME280;7275;50.328;8.720;2023-07-24T11:46:22;98469.22;;;32.80;28.77
14383;BME280;7275;50.328;8.720;2023-07-24T11:48:51;98459.28;;;32.85;28.67
14383;BME280;7275;50.328;8.720;2023-07-24T11:51:20;98459.19;;;32.92;28.75
14383;BME280;7275;50.328;8.720;2023-07-24T11:53:49;98476.47;;;32.56;28.53
14383;BME280;7275;50.328;8.720;2023-07-24T11:56:17;98471.84;;;32.32;28.85
14383;BME280;7275;50.328;8.720;2023-07-24T11:58:46;98490.72;;;32.15;28.97
14383;BME280;7275;50.328;8.720;2023-07-24T12:01:14;98467.88;;;32.28;29.69
14383;BME280;7275;50.328;8.720;2023-07-24T12:03:42;98480.44;;;32.36;29.77
14383;BME280;7275;50.328;8.720;2023-07-24T12:06:14;98443.50;;;32.26;30.18
14383;BME280;7275;50.328;8.720;2023-07-24T12:08:41;98459.31;;;32.43;30.35
14383;BME280;7275;50.328;8.720;2023-07-24T12:11:17;98452.59;;;32.63;29.92
14383;BME280;7275;50.328;8.720;2023-07-24T12:13:45;98438.75;;;32.76;30.43
14383;BME280;7275;50.328;8.720;2023-07-24T12:16:12;98467.78;;;32.77;30.71
14383;BME280;7275;50.328;8.720;2023-07-24T12:18:40;98442.09;;;32.78;30.29
14383;BME280;7275;50.328;8.720;2023-07-24T12:21:07;98449.47;;;32.96;30.39
14383;BME280;7275;50.328;8.720;2023-07-24T12:23:35;98448.16;;;32.98;30.46
14383;BME280;7275;50.328;8.720;2023-07-24T12:26:02;98428.25;;;32.91;30.00
14383;BME280;7275;50.328;8.720;2023-07-24T12:28:31;98430.97;;;33.10;29.64
14383;BME280;7275;50.328;8.720;2023-07-24T12:30:59;98429.19;;;33.15;30.27
14383;BME280;7275;50.328;8.720;2023-07-24T12:33:26;98421.84;;;32.97;30.23
14383;BME280;7275;50.328;8.720;2023-07-24T12:35:54;98427.66;;;33.19;30.02
14383;BME280;7275;50.328;8.720;2023-07-24T12:38:22;98396.66;;;33.48;29.83
14383;BME280;7275;50.328;8.720;2023-07-24T12:40:49;98418.31;;;33.68;29.97
14383;BME280;7275;50.328;8.720;2023-07-24T12:43:17;98401.59;;;33.58;29.71
14383;BME280;7275;50.328;8.720;2023-07-24T12:45:46;98392.94;;;33.43;30.04
14383;BME280;7275;50.328;8.720;2023-07-24T12:48:13;98403.84;;;33.61;30.01
14383;BME280;7275;50.328;8.720;2023-07-24T12:50:41;98414.72;;;33.67;29.73
14383;BME280;7275;50.328;8.720;2023-07-24T12:53:09;98391.50;;;33.93;29.88
14383;BME280;7275;50.328;8.720;2023-07-24T12:55:41;98382.25;;;34.06;29.58
14383;BME280;7275;50.328;8.720;2023-07-24T12:58:09;98398.69;;;34.06;28.84
14383;BME280;7275;50.328;8.720;2023-07-24T13:00:36;98399.97;;;33.68;29.00
14383;BME280;7275;50.328;8.720;2023-07-24T13:03:05;98384.72;;;33.43;29.91
14383;BME280;7275;50.328;8.720;2023-07-24T13:05:33;98395.28;;;33.28;29.69
14383;BME280;7275;50.328;8.720;2023-07-24T13:08:01;98403.53;;;32.98;30.30
14383;BME280;7275;50.328;8.720;2023-07-24T13:10:28;98382.44;;;32.80;30.31
14383;BME280;7275;50.328;8.720;2023-07-24T13:12:56;98383.78;;;32.60;30.83
14383;BME280;7275;50.328;8.720;2023-07-24T13:15:23;98403.13;;;32.40;31.03
14383;BME280;7275;50.328;8.720;2023-07-24T13:17:51;98392.84;;;32.17;31.33